PWSweather.com
Personal Weather Stations
Station Observations
OAK1E
Piedmont Ave District, Oakland, CA 94611

Piedmont Ave DistrictOakland, CA 94611

Lat: 37.832205, Lon: -122.250229

Elevation: 176

Station Type: Davis Vantage Pro 2

http://www.mayacamaswx.com/Oakland1E/Oakland1E.htm

Latest ConditionsUpdated 8:20:00 PM PST Sunday, Jan 22, 2017
Currently Today's Max Today's Min Today's Average
Temperature 46.1°F7.8°C 54.9°F12.7°C 45.3°F7.4°C 49.1°F9.5°C
Dew Point 45.6°F7.6°C 54.3°F12.4°C 44.5°F6.9°C 48.0°F8.9°C
Winds Calm Calm 3.2 mph ESE5.1 kmh ESE - 0.5 mph 0.8 kmh
Wind Gusts -- 8.6 mph13.8 kmh - -
Humidity 98% 100% 83% 96%
Pressure 29.69 in1005.4 mb 29.79 in1008.8 mb 29.63 in1003.4 mb -
Precipitation - 1.07 in27.2 mm - -
Hour Temp Dew Point Humidity Winds Wind Gusts Pressure Precip Precip Rate Daily Precip Total
08:20 PM 46.1°F7.8°C 45.6°F7.6°C 98% Calm Calm -- 29.69 in1005.4 mb - 0.00 in0.0 mm 1.07 in27.2 mm
08:10 PM 46.0°F7.8°C 45.5°F7.5°C 98% Calm Calm -- 29.69 in1005.4 mb - 0.00 in0.0 mm 1.07 in27.2 mm
08:00 PM 46.0°F7.8°C 45.5°F7.5°C 98% Calm Calm -- 29.70 in1005.8 mb - 0.01 in0.3 mm 1.07 in27.2 mm
07:50 PM 45.8°F7.7°C 45.3°F7.4°C 98% Calm Calm -- 29.70 in1005.8 mb - 0.00 in0.0 mm 1.06 in26.9 mm
07:40 PM 45.6°F7.6°C 45.1°F7.3°C 98% Calm Calm -- 29.69 in1005.4 mb - 0.00 in0.0 mm 1.06 in26.9 mm
07:30 PM 45.6°F7.6°C 45.1°F7.3°C 98% Calm Calm -- 29.68 in1005.1 mb - 0.00 in0.0 mm 1.06 in26.9 mm
07:20 PM 45.6°F7.6°C 45.1°F7.3°C 98% Calm Calm -- 29.69 in1005.4 mb - 0.00 in0.0 mm 1.06 in26.9 mm
07:10 PM 45.6°F7.6°C 45.1°F7.3°C 98% Calm Calm -- 29.68 in1005.1 mb - 0.00 in0.0 mm 1.06 in26.9 mm
07:00 PM 45.5°F7.5°C 44.7°F7.1°C 97% Calm Calm -- 29.69 in1005.4 mb - 0.00 in0.0 mm 1.06 in26.9 mm
06:50 PM 45.4°F7.4°C 44.6°F7.0°C 97% Calm Calm -- 29.69 in1005.4 mb - 0.00 in0.0 mm 1.06 in26.9 mm
06:40 PM 45.3°F7.4°C 44.5°F6.9°C 97% Calm Calm -- 29.69 in1005.4 mb - 0.00 in0.0 mm 1.06 in26.9 mm
06:30 PM 45.5°F7.5°C 44.7°F7.1°C 97% Calm Calm -- 29.69 in1005.4 mb - 0.00 in0.0 mm 1.06 in26.9 mm
06:20 PM 45.6°F7.6°C 44.8°F7.1°C 97% Calm Calm -- 29.68 in1005.1 mb - 0.00 in0.0 mm 1.06 in26.9 mm
06:10 PM 45.6°F7.6°C 44.8°F7.1°C 97% Calm Calm -- 29.68 in1005.1 mb - 0.00 in0.0 mm 1.06 in26.9 mm
06:00 PM 45.6°F7.6°C 44.8°F7.1°C 97% Calm Calm -- 29.68 in1005.1 mb - 0.00 in0.0 mm 1.06 in26.9 mm
05:50 PM 45.8°F7.7°C 45.0°F7.2°C 97% Calm Calm -- 29.67 in1004.7 mb - 0.00 in0.0 mm 1.06 in26.9 mm
05:40 PM 45.9°F7.7°C 45.1°F7.3°C 97% Calm Calm -- 29.67 in1004.7 mb - 0.00 in0.0 mm 1.06 in26.9 mm
05:30 PM 45.9°F7.7°C 45.1°F7.3°C 97% Calm Calm -- 29.67 in1004.7 mb - 0.00 in0.0 mm 1.06 in26.9 mm
05:20 PM 45.9°F7.7°C 44.8°F7.1°C 96% Calm Calm -- 29.68 in1005.1 mb - 0.00 in0.0 mm 1.06 in26.9 mm
05:10 PM 45.9°F7.7°C 44.8°F7.1°C 96% Calm Calm -- 29.69 in1005.4 mb - 0.01 in0.3 mm 1.06 in26.9 mm
05:00 PM 45.9°F7.7°C 44.8°F7.1°C 96% Calm Calm -- 29.69 in1005.4 mb - 0.00 in0.0 mm 1.05 in26.7 mm
04:50 PM 46.0°F7.8°C 44.9°F7.2°C 96% Calm Calm -- 29.70 in1005.8 mb - 0.00 in0.0 mm 1.05 in26.7 mm
04:40 PM 46.1°F7.8°C 45.0°F7.2°C 96% Calm Calm -- 29.69 in1005.4 mb - 0.01 in0.3 mm 1.05 in26.7 mm
04:30 PM 46.2°F7.9°C 45.1°F7.3°C 96% Calm Calm -- 29.69 in1005.4 mb - 0.01 in0.3 mm 1.04 in26.4 mm
04:20 PM 46.3°F7.9°C 45.0°F7.2°C 95% 0.2 mph NE0.3 kmh NE 1.4 mph2.3 kmh 29.69 in1005.4 mb - 0.01 in0.3 mm 1.03 in26.2 mm
04:10 PM 46.8°F8.2°C 45.4°F7.4°C 95% 0.8 mph ENE1.3 kmh ENE 4.3 mph6.9 kmh 29.69 in1005.4 mb - 0.01 in0.3 mm 1.02 in25.9 mm
04:00 PM 47.1°F8.4°C 45.7°F7.6°C 95% 0.8 mph N1.3 kmh N 2.9 mph4.7 kmh 29.69 in1005.4 mb - 0.03 in0.8 mm 1.01 in25.7 mm
03:50 PM 47.3°F8.5°C 45.7°F7.6°C 94% 1.3 mph SE2.1 kmh SE 4.3 mph6.9 kmh 29.68 in1005.1 mb - 0.04 in1.0 mm 0.98 in24.9 mm
03:40 PM 47.4°F8.6°C 45.5°F7.5°C 93% Calm Calm -- 29.68 in1005.1 mb - 0.04 in1.0 mm 0.94 in23.9 mm
03:30 PM 48.0°F8.9°C 45.7°F7.6°C 92% 0.8 mph NE1.3 kmh NE 4.3 mph6.9 kmh 29.68 in1005.1 mb - 0.03 in0.8 mm 0.90 in22.9 mm
03:20 PM 48.7°F9.3°C 46.2°F7.9°C 91% 0.2 mph SW0.3 kmh SW 1.4 mph2.3 kmh 29.68 in1005.1 mb - 0.04 in1.0 mm 0.88 in22.4 mm
03:10 PM 49.2°F9.6°C 46.4°F8.0°C 90% Calm Calm -- 29.68 in1005.1 mb - 0.03 in0.8 mm 0.84 in21.3 mm
03:00 PM 49.6°F9.8°C 46.2°F7.9°C 88% 1.2 mph NNW1.9 kmh NNW 2.9 mph4.7 kmh 29.67 in1004.7 mb - 0.00 in0.0 mm 0.81 in20.6 mm
02:50 PM 50.0°F10.0°C 46.3°F7.9°C 87% 0.2 mph NNE0.3 kmh NNE 2.9 mph4.7 kmh 29.66 in1004.4 mb - 0.00 in0.0 mm 0.81 in20.6 mm
02:40 PM 50.3°F10.2°C 46.0°F7.8°C 85% 0.2 mph NE0.3 kmh NE 1.4 mph2.3 kmh 29.66 in1004.4 mb - 0.00 in0.0 mm 0.81 in20.6 mm
02:30 PM 51.1°F10.6°C 46.7°F8.2°C 85% Calm Calm -- 29.66 in1004.4 mb - 0.00 in0.0 mm 0.81 in20.6 mm
02:20 PM 51.7°F10.9°C 47.0°F8.3°C 84% 0.1 mph NE0.2 kmh NE -- 29.68 in1005.1 mb - 0.00 in0.0 mm 0.81 in20.6 mm
02:10 PM 52.6°F11.4°C 47.5°F8.6°C 83% 0.5 mph NE0.8 kmh NE 1.4 mph2.3 kmh 29.68 in1005.1 mb - 0.00 in0.0 mm 0.81 in20.6 mm
02:00 PM 53.6°F12.0°C 49.2°F9.6°C 85% Calm Calm -- 29.68 in1005.1 mb - 0.00 in0.0 mm 0.81 in20.6 mm
01:50 PM 53.9°F12.2°C 48.9°F9.4°C 83% Calm Calm -- 29.68 in1005.1 mb - 0.00 in0.0 mm 0.81 in20.6 mm
01:40 PM 54.4°F12.4°C 49.7°F9.8°C 84% Calm Calm -- 29.68 in1005.1 mb - 0.00 in0.0 mm 0.81 in20.6 mm
01:30 PM 54.6°F12.6°C 49.9°F9.9°C 84% Calm Calm -- 29.69 in1005.4 mb - 0.00 in0.0 mm 0.81 in20.6 mm
01:20 PM 54.6°F12.6°C 50.2°F10.1°C 85% 0.4 mph NNE0.6 kmh NNE -- 29.70 in1005.8 mb - 0.00 in0.0 mm 0.81 in20.6 mm
01:10 PM 54.8°F12.7°C 50.4°F10.2°C 85% 0.7 mph NNE1.1 kmh NNE 1.4 mph2.3 kmh 29.70 in1005.8 mb - 0.00 in0.0 mm 0.81 in20.6 mm
01:00 PM 54.6°F12.6°C 50.9°F10.5°C 87% 0.4 mph E0.6 kmh E 2.9 mph4.7 kmh 29.71 in1006.1 mb - 0.00 in0.0 mm 0.81 in20.6 mm
12:50 PM 54.5°F12.5°C 51.0°F10.6°C 88% 0.6 mph S1.0 kmh S 1.4 mph2.3 kmh 29.71 in1006.1 mb - 0.00 in0.0 mm 0.81 in20.6 mm
12:40 PM 54.5°F12.5°C 51.6°F10.9°C 90% Calm Calm 2.9 mph4.7 kmh 29.71 in1006.1 mb - 0.00 in0.0 mm 0.81 in20.6 mm
12:30 PM 54.8°F12.7°C 52.5°F11.4°C 92% 0.2 mph E0.3 kmh E 1.4 mph2.3 kmh 29.72 in1006.4 mb - 0.00 in0.0 mm 0.81 in20.6 mm
12:20 PM 54.9°F12.7°C 53.8°F12.1°C 96% 0.9 mph NW1.4 kmh NW 2.9 mph4.7 kmh 29.73 in1006.8 mb - 0.00 in0.0 mm 0.81 in20.6 mm
12:10 PM 54.9°F12.7°C 54.3°F12.4°C 98% 0.2 mph SE0.3 kmh SE -- 29.74 in1007.1 mb - 0.00 in0.0 mm 0.81 in20.6 mm
12:00 PM 54.4°F12.4°C 54.1°F12.3°C 99% 0.1 mph E0.2 kmh E 1.4 mph2.3 kmh 29.74 in1007.1 mb - 0.00 in0.0 mm 0.81 in20.6 mm
11:50 AM 53.7°F12.1°C 53.4°F11.9°C 99% 0.1 mph SSE0.2 kmh SSE 1.4 mph2.3 kmh 29.75 in1007.5 mb - 0.00 in0.0 mm 0.81 in20.6 mm
11:40 AM 54.1°F12.3°C 54.1°F12.3°C 100% 0.1 mph E0.2 kmh E 1.4 mph2.3 kmh 29.75 in1007.5 mb - 0.00 in0.0 mm 0.81 in20.6 mm
11:30 AM 53.9°F12.2°C 53.6°F12.0°C 99% Calm Calm 1.4 mph2.3 kmh 29.76 in1007.8 mb - 0.00 in0.0 mm 0.81 in20.6 mm
11:20 AM 53.6°F12.0°C 53.6°F12.0°C 100% 0.8 mph E1.3 kmh E 5.8 mph9.3 kmh 29.77 in1008.1 mb - 0.00 in0.0 mm 0.81 in20.6 mm
11:10 AM 53.2°F11.8°C 53.2°F11.8°C 100% 0.4 mph E0.6 kmh E -- 29.77 in1008.1 mb - 0.00 in0.0 mm 0.81 in20.6 mm
11:00 AM 52.7°F11.5°C 52.7°F11.5°C 100% Calm Calm 1.4 mph2.3 kmh 29.78 in1008.5 mb - 0.00 in0.0 mm 0.81 in20.6 mm
10:50 AM 52.7°F11.5°C 52.7°F11.5°C 100% Calm Calm -- 29.78 in1008.5 mb - 0.00 in0.0 mm 0.81 in20.6 mm
10:40 AM 52.5°F11.4°C 52.5°F11.4°C 100% Calm Calm 1.4 mph2.3 kmh 29.78 in1008.5 mb - 0.00 in0.0 mm 0.81 in20.6 mm
10:30 AM 52.2°F11.2°C 52.2°F11.2°C 100% Calm Calm -- 29.78 in1008.5 mb - 0.00 in0.0 mm 0.81 in20.6 mm
10:20 AM 52.0°F11.1°C 52.0°F11.1°C 100% 0.3 mph SSE0.5 kmh SSE 1.4 mph2.3 kmh 29.79 in1008.8 mb - 0.00 in0.0 mm 0.81 in20.6 mm
10:10 AM 51.6°F10.9°C 51.3°F10.7°C 99% Calm Calm 1.4 mph2.3 kmh 29.79 in1008.8 mb - 0.00 in0.0 mm 0.81 in20.6 mm
10:00 AM 51.3°F10.7°C 51.3°F10.7°C 100% Calm Calm -- 29.78 in1008.5 mb - 0.00 in0.0 mm 0.81 in20.6 mm
09:50 AM 50.9°F10.5°C 50.6°F10.3°C 99% 0.3 mph SE0.5 kmh SE 1.4 mph2.3 kmh 29.78 in1008.5 mb - 0.00 in0.0 mm 0.81 in20.6 mm
09:40 AM 50.3°F10.2°C 50.0°F10.0°C 99% 0.1 mph E0.2 kmh E -- 29.78 in1008.5 mb - 0.08 in2.0 mm 0.81 in20.6 mm
09:30 AM 49.7°F9.8°C 49.4°F9.7°C 99% Calm Calm 1.4 mph2.3 kmh 29.77 in1008.1 mb - 0.01 in0.3 mm 0.74 in18.8 mm
09:20 AM 49.2°F9.6°C 48.9°F9.4°C 99% 0.1 mph NNE0.2 kmh NNE -- 29.77 in1008.1 mb - 0.00 in0.0 mm 0.73 in18.5 mm
09:10 AM 49.2°F9.6°C 48.9°F9.4°C 99% Calm Calm -- 29.77 in1008.1 mb - 0.00 in0.0 mm 0.73 in18.5 mm
09:00 AM 49.3°F9.6°C 49.0°F9.4°C 99% Calm Calm -- 29.77 in1008.1 mb - 0.00 in0.0 mm 0.73 in18.5 mm
08:50 AM 49.4°F9.7°C 49.2°F9.6°C 99% Calm Calm -- 29.76 in1007.8 mb - 0.00 in0.0 mm 0.73 in18.5 mm
08:40 AM 49.5°F9.7°C 49.2°F9.6°C 99% Calm Calm -- 29.76 in1007.8 mb - 0.00 in0.0 mm 0.73 in18.5 mm
08:30 AM 49.5°F9.7°C 49.2°F9.6°C 99% Calm Calm -- 29.76 in1007.8 mb - 0.00 in0.0 mm 0.73 in18.5 mm
08:20 AM 49.5°F9.7°C 49.2°F9.6°C 99% Calm Calm -- 29.76 in1007.8 mb - 0.00 in0.0 mm 0.73 in18.5 mm
08:10 AM 49.5°F9.7°C 49.2°F9.6°C 99% Calm Calm -- 29.75 in1007.5 mb - 0.00 in0.0 mm 0.73 in18.5 mm
08:00 AM 49.4°F9.7°C 49.1°F9.5°C 99% Calm Calm -- 29.75 in1007.5 mb - 0.00 in0.0 mm 0.73 in18.5 mm
07:50 AM 49.3°F9.6°C 49.0°F9.4°C 99% Calm Calm -- 29.75 in1007.5 mb - 0.00 in0.0 mm 0.73 in18.5 mm
07:40 AM 49.2°F9.6°C 48.9°F9.4°C 99% Calm Calm -- 29.74 in1007.1 mb - 0.00 in0.0 mm 0.73 in18.5 mm
07:30 AM 49.2°F9.6°C 48.9°F9.4°C 99% Calm Calm -- 29.74 in1007.1 mb - 0.00 in0.0 mm 0.73 in18.5 mm
07:20 AM 49.2°F9.6°C 48.9°F9.4°C 99% Calm Calm -- 29.73 in1006.8 mb - 0.00 in0.0 mm 0.73 in18.5 mm
07:10 AM 49.3°F9.6°C 49.0°F9.4°C 99% Calm Calm -- 29.73 in1006.8 mb - 0.00 in0.0 mm 0.73 in18.5 mm
07:00 AM 49.4°F9.7°C 49.1°F9.5°C 99% Calm Calm -- 29.73 in1006.8 mb - 0.00 in0.0 mm 0.73 in18.5 mm
06:50 AM 49.4°F9.7°C 49.1°F9.5°C 99% Calm Calm -- 29.72 in1006.4 mb - 0.00 in0.0 mm 0.73 in18.5 mm
06:40 AM 49.2°F9.6°C 48.9°F9.4°C 99% Calm Calm -- 29.72 in1006.4 mb - 0.01 in0.3 mm 0.73 in18.5 mm
06:30 AM 49.1°F9.5°C 48.8°F9.3°C 99% Calm Calm -- 29.71 in1006.1 mb - 0.05 in1.3 mm 0.73 in18.5 mm
06:20 AM 49.0°F9.4°C 48.8°F9.3°C 99% Calm Calm -- 29.71 in1006.1 mb - 0.01 in0.3 mm 0.67 in17.0 mm
06:10 AM 49.0°F9.4°C 48.7°F9.3°C 99% Calm Calm -- 29.70 in1005.8 mb - 0.03 in0.8 mm 0.66 in16.8 mm
06:00 AM 48.8°F9.3°C 48.5°F9.2°C 99% Calm Calm -- 29.70 in1005.8 mb - 0.03 in0.8 mm 0.64 in16.3 mm
05:50 AM 48.7°F9.3°C 48.2°F9.0°C 98% Calm Calm -- 29.70 in1005.8 mb - 0.01 in0.3 mm 0.62 in15.7 mm
05:40 AM 48.6°F9.2°C 48.1°F8.9°C 98% 0.1 mph S0.2 kmh S 1.4 mph2.3 kmh 29.69 in1005.4 mb - 0.01 in0.3 mm 0.61 in15.5 mm
05:30 AM 48.6°F9.2°C 48.0°F8.9°C 98% 0.4 mph SE0.6 kmh SE 2.9 mph4.7 kmh 29.68 in1005.1 mb - 0.04 in1.0 mm 0.59 in15.0 mm
05:20 AM 48.5°F9.2°C 48.0°F8.9°C 98% 0.8 mph ESE1.3 kmh ESE 4.3 mph6.9 kmh 29.68 in1005.1 mb - 0.07 in1.8 mm 0.56 in14.2 mm
05:10 AM 48.5°F9.2°C 48.0°F8.9°C 98% 0.1 mph SW0.2 kmh SW -- 29.68 in1005.1 mb - 0.04 in1.0 mm 0.51 in13.0 mm
05:00 AM 48.4°F9.1°C 47.9°F8.8°C 98% 0.7 mph E1.1 kmh E 2.9 mph4.7 kmh 29.68 in1005.1 mb - 0.12 in3.0 mm 0.45 in11.4 mm
04:50 AM 48.3°F9.1°C 47.8°F8.8°C 98% 0.3 mph SE0.5 kmh SE 1.4 mph2.3 kmh 29.66 in1004.4 mb - 0.04 in1.0 mm 0.33 in8.4 mm
04:40 AM 48.3°F9.1°C 47.8°F8.8°C 98% 0.9 mph NNE1.4 kmh NNE 2.9 mph4.7 kmh 29.64 in1003.7 mb - 0.03 in0.8 mm 0.30 in7.6 mm
04:30 AM 48.3°F9.1°C 47.7°F8.7°C 98% 1.7 mph SE2.7 kmh SE 4.3 mph6.9 kmh 29.63 in1003.4 mb - 0.02 in0.5 mm 0.26 in6.6 mm
04:20 AM 48.2°F9.0°C 47.7°F8.7°C 98% 1.4 mph E2.3 kmh E 2.9 mph4.7 kmh 29.64 in1003.7 mb - 0.02 in0.5 mm 0.25 in6.4 mm
04:10 AM 48.2°F9.0°C 47.7°F8.7°C 98% 2.0 mph NE3.2 kmh NE 7.2 mph11.6 kmh 29.64 in1003.7 mb - 0.01 in0.3 mm 0.23 in5.8 mm
04:00 AM 48.2°F9.0°C 47.7°F8.7°C 98% 1.1 mph NE1.8 kmh NE 2.9 mph4.7 kmh 29.64 in1003.7 mb - 0.01 in0.3 mm 0.22 in5.6 mm
03:50 AM 48.2°F9.0°C 47.7°F8.7°C 98% 2.2 mph SE3.5 kmh SE 5.8 mph9.3 kmh 29.64 in1003.7 mb - 0.02 in0.5 mm 0.21 in5.3 mm
03:40 AM 48.2°F9.0°C 47.7°F8.7°C 98% 2.3 mph E3.7 kmh E 7.2 mph11.6 kmh 29.64 in1003.7 mb - 0.02 in0.5 mm 0.19 in4.8 mm
03:30 AM 48.2°F9.0°C 47.6°F8.7°C 98% 1.2 mph SSE1.9 kmh SSE 1.4 mph2.3 kmh 29.64 in1003.7 mb - 0.01 in0.3 mm 0.18 in4.6 mm
03:20 AM 48.1°F8.9°C 47.6°F8.7°C 98% 2.2 mph SE3.5 kmh SE 7.2 mph11.6 kmh 29.65 in1004.1 mb - 0.00 in0.0 mm 0.15 in3.8 mm
03:10 AM 48.1°F8.9°C 47.3°F8.5°C 97% 2.7 mph SW4.3 kmh SW 5.8 mph9.3 kmh 29.64 in1003.7 mb - 0.01 in0.3 mm 0.15 in3.8 mm
03:00 AM 48.1°F8.9°C 47.3°F8.5°C 97% 1.9 mph SSE3.1 kmh SSE 5.8 mph9.3 kmh 29.65 in1004.1 mb - 0.01 in0.3 mm 0.14 in3.6 mm
02:50 AM 48.1°F8.9°C 47.2°F8.4°C 97% 1.5 mph ESE2.4 kmh ESE 4.3 mph6.9 kmh 29.65 in1004.1 mb - 0.02 in0.5 mm 0.13 in3.3 mm
02:40 AM 48.0°F8.9°C 47.2°F8.4°C 97% 0.8 mph SE1.3 kmh SE 2.9 mph4.7 kmh 29.66 in1004.4 mb - 0.01 in0.3 mm 0.11 in2.8 mm
02:30 AM 47.9°F8.8°C 47.1°F8.4°C 97% 2.2 mph SE3.5 kmh SE 8.6 mph13.8 kmh 29.66 in1004.4 mb - 0.01 in0.3 mm 0.10 in2.5 mm
02:20 AM 47.9°F8.8°C 47.1°F8.4°C 97% 0.8 mph NE1.3 kmh NE 4.3 mph6.9 kmh 29.66 in1004.4 mb - 0.00 in0.0 mm 0.09 in2.3 mm
02:10 AM 47.8°F8.8°C 47.0°F8.3°C 97% 0.9 mph SE1.4 kmh SE 2.9 mph4.7 kmh 29.65 in1004.1 mb - 0.00 in0.0 mm 0.09 in2.3 mm
02:00 AM 47.8°F8.8°C 47.0°F8.3°C 97% 0.1 mph E0.2 kmh E -- 29.66 in1004.4 mb - 0.01 in0.3 mm 0.09 in2.3 mm
01:50 AM 47.8°F8.8°C 47.0°F8.3°C 97% 1.6 mph SE2.6 kmh SE 4.3 mph6.9 kmh 29.66 in1004.4 mb - 0.00 in0.0 mm 0.08 in2.0 mm
01:40 AM 47.8°F8.8°C 46.9°F8.3°C 97% 1.5 mph NE2.4 kmh NE 2.9 mph4.7 kmh 29.66 in1004.4 mb - 0.00 in0.0 mm 0.08 in2.0 mm
01:30 AM 47.7°F8.7°C 46.9°F8.3°C 97% 3.2 mph ESE5.1 kmh ESE 8.6 mph13.8 kmh 29.66 in1004.4 mb - 0.01 in0.3 mm 0.08 in2.0 mm
01:20 AM 47.7°F8.7°C 46.6°F8.1°C 96% 2.1 mph ESE3.4 kmh ESE 4.3 mph6.9 kmh 29.67 in1004.7 mb - 0.00 in0.0 mm 0.07 in1.8 mm
01:10 AM 47.7°F8.7°C 46.6°F8.1°C 96% 1.4 mph SE2.3 kmh SE 2.9 mph4.7 kmh 29.68 in1005.1 mb - 0.00 in0.0 mm 0.07 in1.8 mm
01:00 AM 47.7°F8.7°C 46.6°F8.1°C 96% 1.7 mph SE2.7 kmh SE 2.9 mph4.7 kmh 29.68 in1005.1 mb - 0.02 in0.5 mm 0.07 in1.8 mm
12:50 AM 47.7°F8.7°C 46.6°F8.1°C 96% 1.1 mph SE1.8 kmh SE 2.9 mph4.7 kmh 29.70 in1005.8 mb - 0.03 in0.8 mm 0.04 in1.0 mm
12:40 AM 47.6°F8.7°C 46.5°F8.1°C 96% 0.7 mph SW1.1 kmh SW 1.4 mph2.3 kmh 29.70 in1005.8 mb - 0.00 in0.0 mm 0.01 in0.3 mm
12:30 AM 47.4°F8.6°C 46.6°F8.1°C 97% 0.8 mph ESE1.3 kmh ESE 2.9 mph4.7 kmh 29.70 in1005.8 mb - 0.00 in0.0 mm 0.01 in0.3 mm
12:20 AM 47.4°F8.6°C 46.6°F8.1°C 97% 1.1 mph SE1.8 kmh SE 2.9 mph4.7 kmh 29.71 in1006.1 mb - 0.00 in0.0 mm 0.01 in0.3 mm
12:10 AM 47.3°F8.5°C 46.5°F8.1°C 97% 1.2 mph SE1.9 kmh SE 2.9 mph4.7 kmh 29.71 in1006.1 mb - 0.01 in0.3 mm 0.01 in0.3 mm
12:00 AM 47.2°F8.4°C 46.4°F8.0°C 97% 1.5 mph ESE2.4 kmh ESE 2.9 mph4.7 kmh 29.71 in1006.1 mb - 0.00 in0.0 mm 0.00 in0.0 mm